Shana Des Slops — FFZR — position and weather

sailwx.info

Track history (hours):
 
Tides and Currents Weather Stations Pressure Air Temp Water Temp Dewpoint Dewpoint Depression Visibility Wind Speed Wind Dir Waves Ship Positions

Shana Des Slops

Last reported at 2015-Sep-02 18:33 UTC. Time now 2015-Sep-02 18:57 UTC.
Position N 43°25' E 004°53'.

Length 47 m; draft 3.2 m.

Type: Tanker. MMSI: 228003800.

Date/timePositionNaut miles runAvg speedWind from/ knotsBaromVisibWave heightAir tempDewpointWater temp
2015-Sep-02 18:33N 43°25' E 004°53'0 0.1
2015-Sep-02 17:33N 43°25' E 004°53'5 4.9
2015-Sep-02 16:32N 43°24' E 004°60'0 0.0
2015-Sep-02 15:32N 43°24' E 004°60'0 0.0
2015-Sep-02 14:32N 43°24' E 004°60'0 0.0
2015-Sep-02 13:32N 43°24' E 004°60'0 0.0
2015-Sep-02 12:32N 43°24' E 004°60'0 0.0
2015-Sep-02 11:33N 43°24' E 004°60'0 0.0
2015-Sep-02 10:32N 43°24' E 004°60'0 0.0
2015-Sep-02 09:32N 43°24' E 004°60'0 0.0
2015-Sep-02 08:32N 43°24' E 004°60'0 0.0
2015-Sep-02 07:32N 43°24' E 004°60'0 0.0
2015-Sep-02 06:32N 43°24' E 004°60'0 0.0
2015-Sep-02 05:32N 43°24' E 004°60'0 0.0
2015-Sep-02 04:32N 43°24' E 004°60'0 0.0
2015-Sep-02 03:32N 43°24' E 004°60'0 0.0
2015-Sep-02 02:32N 43°24' E 004°60'0 0.0
2015-Sep-02 01:32N 43°24' E 004°60'0 0.0
2015-Sep-02 00:32N 43°24' E 004°60'0 0.0
2015-Sep-01 23:32N 43°24' E 004°60'0 0.0
2015-Sep-01 22:32N 43°24' E 004°60'0 0.0
2015-Sep-01 21:32N 43°24' E 004°60'0 0.0
2015-Sep-01 20:32N 43°24' E 004°60'0 0.0
2015-Sep-01 19:32N 43°24' E 004°60'0 0.0
2015-Sep-01 18:32N 43°24' E 004°60'0 0.0
2015-Sep-01 17:32N 43°24' E 004°60'0 0.0
2015-Sep-01 16:32N 43°24' E 004°60'0 0.0
2015-Sep-01 15:32N 43°24' E 004°60'0 0.0
2015-Sep-01 14:32N 43°24' E 004°60'0 0.0
2015-Sep-01 13:32N 43°24' E 004°60'0 0.0
2015-Sep-01 12:33N 43°24' E 004°60'0 0.0
2015-Sep-01 11:32N 43°24' E 004°60'0 0.0
2015-Sep-01 10:32N 43°24' E 004°60'0 0.0
2015-Sep-01 09:33N 43°24' E 004°60'0 0.0
2015-Sep-01 08:32N 43°24' E 004°60'0 0.0
2015-Sep-01 07:32N 43°24' E 004°60'0 0.0
2015-Sep-01 06:32N 43°24' E 004°60'0 0.0
2015-Sep-01 05:32N 43°24' E 004°60'0 0.0
2015-Sep-01 04:32N 43°24' E 004°60'0 0.0
2015-Sep-01 03:32N 43°24' E 004°60'0 0.0
2015-Sep-01 02:32N 43°24' E 004°60'0 0.0
2015-Sep-01 01:32N 43°24' E 004°60'0 0.0
2015-Sep-01 00:32N 43°24' E 004°60'0 0.0
2015-Aug-31 23:32N 43°24' E 004°60'0 0.0
2015-Aug-31 22:32N 43°24' E 004°60'0 0.0
2015-Aug-31 21:32N 43°24' E 004°60'0 0.0
2015-Aug-31 20:32N 43°24' E 004°60'0 0.0
2015-Aug-31 19:32N 43°24' E 004°60'0 0.0
2015-Aug-31 18:32N 43°24' E 004°60'0 0.0
2015-Aug-31 17:32N 43°24' E 004°60'0 0.0
2015-Aug-31 16:32N 43°24' E 004°60'0 0.0
2015-Aug-31 15:32N 43°24' E 004°60'0 0.0
2015-Aug-31 14:33N 43°24' E 004°60'0 0.0
2015-Aug-31 13:33N 43°24' E 004°60'0 0.0
2015-Aug-31 12:33N 43°24' E 004°60'0 0.0
2015-Aug-31 11:33N 43°24' E 004°60'0 0.0
2015-Aug-31 10:33N 43°24' E 004°60'0 0.0
2015-Aug-31 09:33N 43°24' E 004°60'0 0.0
2015-Aug-31 08:33N 43°24' E 004°60'0 0.0
2015-Aug-31 07:33N 43°24' E 004°60'0 0.0
2015-Aug-31 06:33N 43°24' E 004°60'0 0.0
2015-Aug-31 05:30N 43°24' E 004°60'0 0.0
2015-Aug-31 04:33N 43°24' E 004°60'0 0.0
2015-Aug-31 03:33N 43°24' E 004°60'0 0.0
2015-Aug-31 02:33N 43°24' E 004°60'0 0.0
2015-Aug-31 01:33N 43°24' E 004°60'0 0.0
2015-Aug-31 00:31N 43°24' E 004°60'0 0.0
2015-Aug-30 23:31N 43°24' E 004°60'0 0.0
2015-Aug-30 22:31N 43°24' E 004°60'0 0.0
2015-Aug-30 21:31N 43°24' E 004°60'0 0.0
2015-Aug-30 20:31N 43°24' E 004°60'0 0.0
2015-Aug-30 19:31N 43°24' E 004°60'0 0.0
2015-Aug-30 18:31N 43°24' E 004°60'0 0.0
2015-Aug-30 17:31N 43°24' E 004°60'2 1.6
2015-Aug-30 16:34N 43°24' E 004°58'1 1.2
2015-Aug-30 15:33N 43°24' E 004°57'2 2.4
2015-Aug-30 14:32N 43°24' E 004°60'0 0.0
2015-Aug-30 13:28N 43°24' E 004°60'0 0.0
2015-Aug-30 12:32N 43°24' E 004°60'0 0.0
2015-Aug-30 11:33N 43°24' E 004°60'0 0.0
2015-Aug-30 10:33N 43°24' E 004°60'0 0.0
2015-Aug-30 09:33N 43°24' E 004°60'0 0.0
2015-Aug-30 08:33N 43°24' E 004°60'0 0.0
2015-Aug-30 07:33N 43°24' E 004°60'0 0.0
2015-Aug-30 06:33N 43°24' E 004°60'0 0.0
2015-Aug-30 05:33N 43°24' E 004°60'0 0.0
2015-Aug-30 04:33N 43°24' E 004°60'0 0.0
2015-Aug-30 03:33N 43°24' E 004°60'0 0.0
2015-Aug-30 02:33N 43°24' E 004°60'0 0.0
2015-Aug-30 01:33N 43°24' E 004°60'0 0.0
2015-Aug-30 00:33N 43°24' E 004°60'0 0.0
2015-Aug-29 23:33N 43°24' E 004°60'0 0.0
2015-Aug-29 22:33N 43°24' E 004°60'0 0.0
2015-Aug-29 21:33N 43°24' E 004°60'0 0.0
2015-Aug-29 20:33N 43°24' E 004°60'0 0.0
2015-Aug-29 19:33N 43°24' E 004°60'0 0.0
2015-Aug-29 18:33N 43°24' E 004°60'0 0.0
2015-Aug-29 17:32N 43°24' E 004°60'0 0.0
2015-Aug-29 16:32N 43°24' E 004°60'0 0.0
2015-Aug-29 15:32N 43°24' E 004°60'0 0.0
2015-Aug-29 14:33N 43°24' E 004°60'0 0.0
2015-Aug-29 13:33N 43°24' E 004°60'0 0.0
2015-Aug-29 12:33N 43°24' E 004°60'0 0.0
2015-Aug-29 11:33N 43°24' E 004°60'0 0.0
2015-Aug-29 10:33N 43°24' E 004°60'0 0.3
2015-Aug-29 09:33N 43°24' E 004°60'1 1.1
2015-Aug-29 08:33N 43°24' E 004°58'1 1.3
2015-Aug-29 07:32N 43°24' E 004°60'0 0.0
2015-Aug-29 06:29N 43°24' E 004°60'0 0.0
2015-Aug-29 05:32N 43°24' E 004°60'0 0.0
2015-Aug-29 04:32N 43°24' E 004°60'0 0.0
2015-Aug-29 03:31N 43°24' E 004°60'0 0.0
2015-Aug-29 02:31N 43°24' E 004°60'0 0.0
2015-Aug-29 01:31N 43°24' E 004°60'0 0.0
2015-Aug-29 00:28N 43°24' E 004°60'0 0.0
2015-Aug-28 23:31N 43°24' E 004°60'0 0.0
2015-Aug-28 22:31N 43°24' E 004°60'0 0.0
2015-Aug-28 21:31N 43°24' E 004°60'0 0.0
2015-Aug-28 20:31N 43°24' E 004°60'0 0.0
2015-Aug-28 19:31N 43°24' E 004°60'0 0.0
2015-Aug-28 18:31N 43°24' E 004°60'0 0.0
2015-Aug-28 17:31N 43°24' E 004°60'0 0.0
2015-Aug-28 16:31N 43°24' E 004°60'1 1.4
2015-Aug-28 15:33N 43°24' E 004°58'1 1.3
2015-Aug-28 14:32N 43°24' E 004°56'0 0.0
2015-Aug-28 13:32N 43°24' E 004°56'0 0.0
2015-Aug-28 12:32N 43°24' E 004°56'0 0.0
2015-Aug-28 11:29N 43°24' E 004°56'1 0.6
2015-Aug-28 10:34N 43°24' E 004°56'0 0.0
2015-Aug-28 09:34N 43°24' E 004°56'0 0.0
2015-Aug-28 08:34N 43°24' E 004°56'0 0.0
2015-Aug-28 07:33N 43°24' E 004°56'0 0.0
2015-Aug-28 06:34N 43°24' E 004°56'3 3.0
2015-Aug-28 05:32N 43°24' E 004°60'0 0.0
2015-Aug-28 04:32N 43°24' E 004°60'0 0.0
2015-Aug-28 03:32N 43°24' E 004°60'0 0.0
2015-Aug-28 02:32N 43°24' E 004°60'0 0.0
2015-Aug-28 01:32N 43°24' E 004°60'0 0.0
2015-Aug-28 00:32N 43°24' E 004°60'0 0.0
2015-Aug-27 23:32N 43°24' E 004°60'0 0.0
2015-Aug-27 22:32N 43°24' E 004°60'0 0.0
2015-Aug-27 21:32N 43°24' E 004°60'0 0.0
2015-Aug-27 20:32N 43°24' E 004°60'0 0.0
2015-Aug-27 19:32N 43°24' E 004°60'0 0.0
2015-Aug-27 18:32N 43°24' E 004°60'0 0.0
2015-Aug-27 17:32N 43°24' E 004°60'0 0.0
2015-Aug-27 16:32N 43°24' E 004°60'2 2.4
2015-Aug-27 15:31N 43°25' E 004°57'0 0.0
2015-Aug-27 14:33N 43°25' E 004°57'2 2.4
2015-Aug-27 13:33N 43°24' E 004°60'0 0.0
2015-Aug-27 12:33N 43°24' E 004°60'0 0.0
2015-Aug-27 11:33N 43°24' E 004°60'0 0.0
2015-Aug-27 10:33N 43°24' E 004°60'0 0.0
2015-Aug-27 09:33N 43°24' E 004°60'0 0.0
2015-Aug-27 08:33N 43°24' E 004°60'0 0.0
2015-Aug-27 07:33N 43°24' E 004°60'0 0.0
2015-Aug-27 06:33N 43°24' E 004°60'0 0.0
2015-Aug-27 05:33N 43°24' E 004°60'0 0.0
2015-Aug-27 04:33N 43°24' E 004°60'0 0.0
2015-Aug-27 03:33N 43°24' E 004°60'0 0.0
2015-Aug-27 02:33N 43°24' E 004°60'0 0.0
2015-Aug-27 01:31N 43°24' E 004°60'0 0.0
2015-Aug-27 00:33N 43°24' E 004°60'0 0.0
2015-Aug-26 23:33N 43°24' E 004°60'0 0.0
2015-Aug-26 22:33N 43°24' E 004°60'0 0.0
2015-Aug-26 21:33N 43°24' E 004°60'0 0.0
2015-Aug-26 20:30N 43°24' E 004°60'3 2.9
2015-Aug-26 19:31N 43°24' E 004°56'0 0.0
2015-Aug-26 18:28N 43°24' E 004°56'0 0.0
2015-Aug-26 17:32N 43°24' E 004°56'0 0.0
2015-Aug-26 16:29N 43°24' E 004°56'0 0.0
2015-Aug-26 15:29N 43°24' E 004°56'0 0.0
2015-Aug-26 14:32N 43°24' E 004°56'0 0.0
2015-Aug-26 13:34N 43°24' E 004°56'3 2.7
2015-Aug-26 12:32N 43°24' E 004°60'0 0.0
2015-Aug-26 11:32N 43°24' E 004°60'0 0.0
2015-Aug-26 10:32N 43°24' E 004°60'0 0.0
2015-Aug-26 09:32N 43°24' E 004°60'0 0.0
2015-Aug-26 08:32N 43°24' E 004°60'0 0.0
2015-Aug-26 07:32N 43°24' E 004°60'0 0.0
2015-Aug-26 06:32N 43°24' E 004°60'0 0.0
2015-Aug-26 05:32N 43°24' E 004°60'0 0.0
2015-Aug-26 04:32N 43°24' E 004°60'0 0.0
2015-Aug-26 03:31N 43°24' E 004°60'0 0.0
2015-Aug-26 02:31N 43°24' E 004°60'0 0.0
2015-Aug-26 01:31N 43°24' E 004°60'0 0.0
2015-Aug-26 00:31N 43°24' E 004°60'0 0.0
2015-Aug-25 23:31N 43°24' E 004°60'0 0.0
2015-Aug-25 22:31N 43°24' E 004°60'5 4.7
2015-Aug-25 21:32N 43°25' E 004°54'0 0.0
2015-Aug-25 20:29N 43°25' E 004°54'0 0.0
2015-Aug-25 19:29N 43°25' E 004°54'0 0.0
2015-Aug-25 18:32N 43°25' E 004°54'0 0.0
2015-Aug-25 17:32N 43°25' E 004°54'0 0.0
2015-Aug-25 16:32N 43°25' E 004°54'0 0.0
2015-Aug-25 15:32N 43°25' E 004°54'0 0.0
2015-Aug-25 14:33N 43°25' E 004°54'2 2.0
2015-Aug-25 13:28N 43°24' E 004°51'0 0.0
2015-Aug-25 12:28N 43°24' E 004°51'0 0.0
2015-Aug-25 11:28N 43°24' E 004°51'0 0.0
2015-Aug-25 10:32N 43°24' E 004°51'0 0.2
2015-Aug-25 09:34N 43°24' E 004°51'6 6.3
2015-Aug-25 08:32N 43°24' E 004°60'0 0.0
2015-Aug-25 07:32N 43°24' E 004°60'0 0.0
2015-Aug-25 06:32N 43°24' E 004°60'0 0.0
2015-Aug-25 05:32N 43°24' E 004°60'0 0.0
2015-Aug-25 04:32N 43°24' E 004°60'0 0.0
2015-Aug-25 03:32N 43°24' E 004°60'0 0.0
2015-Aug-25 02:32N 43°24' E 004°60'0 0.0
2015-Aug-25 01:29N 43°24' E 004°60'0 0.0
2015-Aug-25 00:32N 43°24' E 004°60'0 0.0
2015-Aug-24 23:32N 43°24' E 004°60'0 0.0
2015-Aug-24 22:29N 43°24' E 004°60'0 0.0
2015-Aug-24 21:32N 43°24' E 004°60'0 0.0
2015-Aug-24 20:32N 43°24' E 004°60'0 0.0
2015-Aug-24 19:32N 43°24' E 004°60'0 0.0
2015-Aug-24 18:33N 43°24' E 004°60'0 0.0
2015-Aug-24 17:31N 43°24' E 004°60'0 0.0
2015-Aug-24 16:33N 43°24' E 004°60'0 0.0
2015-Aug-24 15:32N 43°24' E 004°60'0 0.0
2015-Aug-24 14:32N 43°24' E 004°60'0 0.0
2015-Aug-24 13:32N 43°24' E 004°60'3 3.4
2015-Aug-24 12:33N 43°21' E 004°60'8 7.6
2015-Aug-24 11:33N 43°18' E 005°09'7 7.4
2015-Aug-24 10:33N 43°21' E 005°19'1 0.7
2015-Aug-24 09:31N 43°21' E 005°20'0 0.0
2015-Aug-24 08:20N 43°21' E 005°20'0 0.0
2015-Aug-24 07:33N 43°21' E 005°20'0 0.0
2015-Aug-24 06:34N 43°21' E 005°20'5 5.1
2015-Aug-24 05:34N 43°19' E 005°13'7 6.9
2015-Aug-24 04:33N 43°18' E 005°04'6 6.0
2015-Aug-24 03:34N 43°22' E 004°59'2 2.0
2015-Aug-24 02:33N 43°24' E 004°60'0 0.0
2015-Aug-24 01:31N 43°24' E 004°60'0 0.0
2015-Aug-24 00:33N 43°24' E 004°60'0 0.0
2015-Aug-23 23:32N 43°24' E 004°60'0 0.0
2015-Aug-23 22:32N 43°24' E 004°60'0 0.0
2015-Aug-23 21:32N 43°24' E 004°60'0 0.0
2015-Aug-23 20:32N 43°24' E 004°60'0 0.0
2015-Aug-23 19:32N 43°24' E 004°60'  
Track history (hours):
 
Tides and Currents Weather Stations Pressure Air Temp Water Temp Dewpoint Dewpoint Depression Visibility Wind Speed Wind Dir Waves Ship Positions

Shana Des Slops

Last reported at 2015-Sep-02 18:33 UTC. Time now 2015-Sep-02 18:57 UTC.
Position N 43°25' E 004°53'.

Length 47 m; draft 3.2 m.

Type: Tanker. MMSI: 228003800.

Date/timePositionNaut miles runAvg speedWind from/ knotsBaromVisibWave heightAir tempDewpointWater temp
2015-Sep-02 18:33N 43°25' E 004°53'0 0.1
2015-Sep-02 17:33N 43°25' E 004°53'5 4.9
2015-Sep-02 16:32N 43°24' E 004°60'0 0.0
2015-Sep-02 15:32N 43°24' E 004°60'0 0.0
2015-Sep-02 14:32N 43°24' E 004°60'0 0.0
2015-Sep-02 13:32N 43°24' E 004°60'0 0.0
2015-Sep-02 12:32N 43°24' E 004°60'0 0.0
2015-Sep-02 11:33N 43°24' E 004°60'0 0.0
2015-Sep-02 10:32N 43°24' E 004°60'0 0.0
2015-Sep-02 09:32N 43°24' E 004°60'0 0.0
2015-Sep-02 08:32N 43°24' E 004°60'0 0.0
2015-Sep-02 07:32N 43°24' E 004°60'0 0.0
2015-Sep-02 06:32N 43°24' E 004°60'0 0.0
2015-Sep-02 05:32N 43°24' E 004°60'0 0.0
2015-Sep-02 04:32N 43°24' E 004°60'0 0.0
2015-Sep-02 03:32N 43°24' E 004°60'0 0.0
2015-Sep-02 02:32N 43°24' E 004°60'0 0.0
2015-Sep-02 01:32N 43°24' E 004°60'0 0.0
2015-Sep-02 00:32N 43°24' E 004°60'0 0.0
2015-Sep-01 23:32N 43°24' E 004°60'0 0.0
2015-Sep-01 22:32N 43°24' E 004°60'0 0.0
2015-Sep-01 21:32N 43°24' E 004°60'0 0.0
2015-Sep-01 20:32N 43°24' E 004°60'0 0.0
2015-Sep-01 19:32N 43°24' E 004°60'0 0.0
2015-Sep-01 18:32N 43°24' E 004°60'0 0.0
2015-Sep-01 17:32N 43°24' E 004°60'0 0.0
2015-Sep-01 16:32N 43°24' E 004°60'0 0.0
2015-Sep-01 15:32N 43°24' E 004°60'0 0.0
2015-Sep-01 14:32N 43°24' E 004°60'0 0.0
2015-Sep-01 13:32N 43°24' E 004°60'0 0.0
2015-Sep-01 12:33N 43°24' E 004°60'0 0.0
2015-Sep-01 11:32N 43°24' E 004°60'0 0.0
2015-Sep-01 10:32N 43°24' E 004°60'0 0.0
2015-Sep-01 09:33N 43°24' E 004°60'0 0.0
2015-Sep-01 08:32N 43°24' E 004°60'0 0.0
2015-Sep-01 07:32N 43°24' E 004°60'0 0.0
2015-Sep-01 06:32N 43°24' E 004°60'0 0.0
2015-Sep-01 05:32N 43°24' E 004°60'0 0.0
2015-Sep-01 04:32N 43°24' E 004°60'0 0.0
2015-Sep-01 03:32N 43°24' E 004°60'0 0.0
2015-Sep-01 02:32N 43°24' E 004°60'0 0.0
2015-Sep-01 01:32N 43°24' E 004°60'0 0.0
2015-Sep-01 00:32N 43°24' E 004°60'0 0.0
2015-Aug-31 23:32N 43°24' E 004°60'0 0.0
2015-Aug-31 22:32N 43°24' E 004°60'0 0.0
2015-Aug-31 21:32N 43°24' E 004°60'0 0.0
2015-Aug-31 20:32N 43°24' E 004°60'0 0.0
2015-Aug-31 19:32N 43°24' E 004°60'0 0.0
2015-Aug-31 18:32N 43°24' E 004°60'0 0.0
2015-Aug-31 17:32N 43°24' E 004°60'0 0.0
2015-Aug-31 16:32N 43°24' E 004°60'0 0.0
2015-Aug-31 15:32N 43°24' E 004°60'0 0.0
2015-Aug-31 14:33N 43°24' E 004°60'0 0.0
2015-Aug-31 13:33N 43°24' E 004°60'0 0.0
2015-Aug-31 12:33N 43°24' E 004°60'0 0.0
2015-Aug-31 11:33N 43°24' E 004°60'0 0.0
2015-Aug-31 10:33N 43°24' E 004°60'0 0.0
2015-Aug-31 09:33N 43°24' E 004°60'0 0.0
2015-Aug-31 08:33N 43°24' E 004°60'0 0.0
2015-Aug-31 07:33N 43°24' E 004°60'0 0.0
2015-Aug-31 06:33N 43°24' E 004°60'0 0.0
2015-Aug-31 05:30N 43°24' E 004°60'0 0.0
2015-Aug-31 04:33N 43°24' E 004°60'0 0.0
2015-Aug-31 03:33N 43°24' E 004°60'0 0.0
2015-Aug-31 02:33N 43°24' E 004°60'0 0.0
2015-Aug-31 01:33N 43°24' E 004°60'0 0.0
2015-Aug-31 00:31N 43°24' E 004°60'0 0.0
2015-Aug-30 23:31N 43°24' E 004°60'0 0.0
2015-Aug-30 22:31N 43°24' E 004°60'0 0.0
2015-Aug-30 21:31N 43°24' E 004°60'0 0.0
2015-Aug-30 20:31N 43°24' E 004°60'0 0.0
2015-Aug-30 19:31N 43°24' E 004°60'0 0.0
2015-Aug-30 18:31N 43°24' E 004°60'0 0.0
2015-Aug-30 17:31N 43°24' E 004°60'2 1.6
2015-Aug-30 16:34N 43°24' E 004°58'1 1.2
2015-Aug-30 15:33N 43°24' E 004°57'2 2.4
2015-Aug-30 14:32N 43°24' E 004°60'0 0.0
2015-Aug-30 13:28N 43°24' E 004°60'0 0.0
2015-Aug-30 12:32N 43°24' E 004°60'0 0.0
2015-Aug-30 11:33N 43°24' E 004°60'0 0.0
2015-Aug-30 10:33N 43°24' E 004°60'0 0.0
2015-Aug-30 09:33N 43°24' E 004°60'0 0.0
2015-Aug-30 08:33N 43°24' E 004°60'0 0.0
2015-Aug-30 07:33N 43°24' E 004°60'0 0.0
2015-Aug-30 06:33N 43°24' E 004°60'0 0.0
2015-Aug-30 05:33N 43°24' E 004°60'0 0.0
2015-Aug-30 04:33N 43°24' E 004°60'0 0.0
2015-Aug-30 03:33N 43°24' E 004°60'0 0.0
2015-Aug-30 02:33N 43°24' E 004°60'0 0.0
2015-Aug-30 01:33N 43°24' E 004°60'0 0.0
2015-Aug-30 00:33N 43°24' E 004°60'0 0.0
2015-Aug-29 23:33N 43°24' E 004°60'0 0.0
2015-Aug-29 22:33N 43°24' E 004°60'0 0.0
2015-Aug-29 21:33N 43°24' E 004°60'0 0.0
2015-Aug-29 20:33N 43°24' E 004°60'0 0.0
2015-Aug-29 19:33N 43°24' E 004°60'0 0.0
2015-Aug-29 18:33N 43°24' E 004°60'0 0.0
2015-Aug-29 17:32N 43°24' E 004°60'0 0.0
2015-Aug-29 16:32N 43°24' E 004°60'0 0.0
2015-Aug-29 15:32N 43°24' E 004°60'0 0.0
2015-Aug-29 14:33N 43°24' E 004°60'0 0.0
2015-Aug-29 13:33N 43°24' E 004°60'0 0.0
2015-Aug-29 12:33N 43°24' E 004°60'0 0.0
2015-Aug-29 11:33N 43°24' E 004°60'0 0.0
2015-Aug-29 10:33N 43°24' E 004°60'0 0.3
2015-Aug-29 09:33N 43°24' E 004°60'1 1.1
2015-Aug-29 08:33N 43°24' E 004°58'1 1.3
2015-Aug-29 07:32N 43°24' E 004°60'0 0.0
2015-Aug-29 06:29N 43°24' E 004°60'0 0.0
2015-Aug-29 05:32N 43°24' E 004°60'0 0.0
2015-Aug-29 04:32N 43°24' E 004°60'0 0.0
2015-Aug-29 03:31N 43°24' E 004°60'0 0.0
2015-Aug-29 02:31N 43°24' E 004°60'0 0.0
2015-Aug-29 01:31N 43°24' E 004°60'0 0.0
2015-Aug-29 00:28N 43°24' E 004°60'0 0.0
2015-Aug-28 23:31N 43°24' E 004°60'0 0.0
2015-Aug-28 22:31N 43°24' E 004°60'0 0.0
2015-Aug-28 21:31N 43°24' E 004°60'0 0.0
2015-Aug-28 20:31N 43°24' E 004°60'0 0.0
2015-Aug-28 19:31N 43°24' E 004°60'0 0.0
2015-Aug-28 18:31N 43°24' E 004°60'0 0.0
2015-Aug-28 17:31N 43°24' E 004°60'0 0.0
2015-Aug-28 16:31N 43°24' E 004°60'1 1.4
2015-Aug-28 15:33N 43°24' E 004°58'1 1.3
2015-Aug-28 14:32N 43°24' E 004°56'0 0.0
2015-Aug-28 13:32N 43°24' E 004°56'0 0.0
2015-Aug-28 12:32N 43°24' E 004°56'0 0.0
2015-Aug-28 11:29N 43°24' E 004°56'1 0.6
2015-Aug-28 10:34N 43°24' E 004°56'0 0.0
2015-Aug-28 09:34N 43°24' E 004°56'0 0.0
2015-Aug-28 08:34N 43°24' E 004°56'0 0.0
2015-Aug-28 07:33N 43°24' E 004°56'0 0.0
2015-Aug-28 06:34N 43°24' E 004°56'3 3.0
2015-Aug-28 05:32N 43°24' E 004°60'0 0.0
2015-Aug-28 04:32N 43°24' E 004°60'0 0.0
2015-Aug-28 03:32N 43°24' E 004°60'0 0.0
2015-Aug-28 02:32N 43°24' E 004°60'0 0.0
2015-Aug-28 01:32N 43°24' E 004°60'0 0.0
2015-Aug-28 00:32N 43°24' E 004°60'0 0.0
2015-Aug-27 23:32N 43°24' E 004°60'0 0.0
2015-Aug-27 22:32N 43°24' E 004°60'0 0.0
2015-Aug-27 21:32N 43°24' E 004°60'0 0.0
2015-Aug-27 20:32N 43°24' E 004°60'0 0.0
2015-Aug-27 19:32N 43°24' E 004°60'0 0.0
2015-Aug-27 18:32N 43°24' E 004°60'0 0.0
2015-Aug-27 17:32N 43°24' E 004°60'0 0.0
2015-Aug-27 16:32N 43°24' E 004°60'2 2.4
2015-Aug-27 15:31N 43°25' E 004°57'0 0.0
2015-Aug-27 14:33N 43°25' E 004°57'2 2.4
2015-Aug-27 13:33N 43°24' E 004°60'0 0.0
2015-Aug-27 12:33N 43°24' E 004°60'0 0.0
2015-Aug-27 11:33N 43°24' E 004°60'0 0.0
2015-Aug-27 10:33N 43°24' E 004°60'0 0.0
2015-Aug-27 09:33N 43°24' E 004°60'0 0.0
2015-Aug-27 08:33N 43°24' E 004°60'0 0.0
2015-Aug-27 07:33N 43°24' E 004°60'0 0.0
2015-Aug-27 06:33N 43°24' E 004°60'0 0.0
2015-Aug-27 05:33N 43°24' E 004°60'0 0.0
2015-Aug-27 04:33N 43°24' E 004°60'0 0.0
2015-Aug-27 03:33N 43°24' E 004°60'0 0.0
2015-Aug-27 02:33N 43°24' E 004°60'0 0.0
2015-Aug-27 01:31N 43°24' E 004°60'0 0.0
2015-Aug-27 00:33N 43°24' E 004°60'0 0.0
2015-Aug-26 23:33N 43°24' E 004°60'0 0.0
2015-Aug-26 22:33N 43°24' E 004°60'0 0.0
2015-Aug-26 21:33N 43°24' E 004°60'0 0.0
2015-Aug-26 20:30N 43°24' E 004°60'3 2.9
2015-Aug-26 19:31N 43°24' E 004°56'0 0.0
2015-Aug-26 18:28N 43°24' E 004°56'0 0.0
2015-Aug-26 17:32N 43°24' E 004°56'0 0.0
2015-Aug-26 16:29N 43°24' E 004°56'0 0.0
2015-Aug-26 15:29N 43°24' E 004°56'0 0.0
2015-Aug-26 14:32N 43°24' E 004°56'0 0.0
2015-Aug-26 13:34N 43°24' E 004°56'3 2.7
2015-Aug-26 12:32N 43°24' E 004°60'0 0.0
2015-Aug-26 11:32N 43°24' E 004°60'0 0.0
2015-Aug-26 10:32N 43°24' E 004°60'0 0.0
2015-Aug-26 09:32N 43°24' E 004°60'0 0.0
2015-Aug-26 08:32N 43°24' E 004°60'0 0.0
2015-Aug-26 07:32N 43°24' E 004°60'0 0.0
2015-Aug-26 06:32N 43°24' E 004°60'0 0.0
2015-Aug-26 05:32N 43°24' E 004°60'0 0.0
2015-Aug-26 04:32N 43°24' E 004°60'0 0.0
2015-Aug-26 03:31N 43°24' E 004°60'0 0.0
2015-Aug-26 02:31N 43°24' E 004°60'0 0.0
2015-Aug-26 01:31N 43°24' E 004°60'0 0.0
2015-Aug-26 00:31N 43°24' E 004°60'0 0.0
2015-Aug-25 23:31N 43°24' E 004°60'0 0.0
2015-Aug-25 22:31N 43°24' E 004°60'5 4.7
2015-Aug-25 21:32N 43°25' E 004°54'0 0.0
2015-Aug-25 20:29N 43°25' E 004°54'0 0.0
2015-Aug-25 19:29N 43°25' E 004°54'0 0.0
2015-Aug-25 18:32N 43°25' E 004°54'0 0.0
2015-Aug-25 17:32N 43°25' E 004°54'0 0.0
2015-Aug-25 16:32N 43°25' E 004°54'0 0.0
2015-Aug-25 15:32N 43°25' E 004°54'0 0.0
2015-Aug-25 14:33N 43°25' E 004°54'2 2.0
2015-Aug-25 13:28N 43°24' E 004°51'0 0.0
2015-Aug-25 12:28N 43°24' E 004°51'0 0.0
2015-Aug-25 11:28N 43°24' E 004°51'0 0.0
2015-Aug-25 10:32N 43°24' E 004°51'0 0.2
2015-Aug-25 09:34N 43°24' E 004°51'6 6.3
2015-Aug-25 08:32N 43°24' E 004°60'0 0.0
2015-Aug-25 07:32N 43°24' E 004°60'0 0.0
2015-Aug-25 06:32N 43°24' E 004°60'0 0.0
2015-Aug-25 05:32N 43°24' E 004°60'0 0.0
2015-Aug-25 04:32N 43°24' E 004°60'0 0.0
2015-Aug-25 03:32N 43°24' E 004°60'0 0.0
2015-Aug-25 02:32N 43°24' E 004°60'0 0.0
2015-Aug-25 01:29N 43°24' E 004°60'0 0.0
2015-Aug-25 00:32N 43°24' E 004°60'0 0.0
2015-Aug-24 23:32N 43°24' E 004°60'0 0.0
2015-Aug-24 22:29N 43°24' E 004°60'0 0.0
2015-Aug-24 21:32N 43°24' E 004°60'0 0.0
2015-Aug-24 20:32N 43°24' E 004°60'0 0.0
2015-Aug-24 19:32N 43°24' E 004°60'0 0.0
2015-Aug-24 18:33N 43°24' E 004°60'0 0.0
2015-Aug-24 17:31N 43°24' E 004°60'0 0.0
2015-Aug-24 16:33N 43°24' E 004°60'0 0.0
2015-Aug-24 15:32N 43°24' E 004°60'0 0.0
2015-Aug-24 14:32N 43°24' E 004°60'0 0.0
2015-Aug-24 13:32N 43°24' E 004°60'3 3.4
2015-Aug-24 12:33N 43°21' E 004°60'8 7.6
2015-Aug-24 11:33N 43°18' E 005°09'7 7.4
2015-Aug-24 10:33N 43°21' E 005°19'1 0.7
2015-Aug-24 09:31N 43°21' E 005°20'0 0.0
2015-Aug-24 08:20N 43°21' E 005°20'0 0.0
2015-Aug-24 07:33N 43°21' E 005°20'0 0.0
2015-Aug-24 06:34N 43°21' E 005°20'5 5.1
2015-Aug-24 05:34N 43°19' E 005°13'7 6.9
2015-Aug-24 04:33N 43°18' E 005°04'6 6.0
2015-Aug-24 03:34N 43°22' E 004°59'2 2.0
2015-Aug-24 02:33N 43°24' E 004°60'0 0.0
2015-Aug-24 01:31N 43°24' E 004°60'0 0.0
2015-Aug-24 00:33N 43°24' E 004°60'0 0.0
2015-Aug-23 23:32N 43°24' E 004°60'0 0.0
2015-Aug-23 22:32N 43°24' E 004°60'0 0.0
2015-Aug-23 21:32N 43°24' E 004°60'0 0.0
2015-Aug-23 20:32N 43°24' E 004°60'0 0.0
2015-Aug-23 19:32N 43°24' E 004°60'  

Dump ship's entire track history